Time;durP1;ratioP1;P1;durP2;ratioP2;P2;SDS_P1;SDS_P2;PMS_P1;PMS_P2;Temp;Humidity;BMP_temperature;BMP_pressure;BME280_temperature;BME280_humidity;BME280_pressure;Samples;Min_cycle;Max_cycle;Signal;HPM_P1;HPM_P2
2022/05/15 00:02:07;;;;;;;;;;;;;;;;;;6215733;23;20115;-74
2022/05/15 00:04:33;;;;;;;8.90;8.05;;;;;;;;;;6215383;23;20385;-82
2022/05/15 00:06:59;;;;;;;9.25;8.20;;;;;;;;;;6215200;23;20032;-81
2022/05/15 00:09:25;;;;;;;8.45;7.60;;;;;;;;;;6215391;23;20005;-77
2022/05/15 00:11:51;;;;;;;9.60;8.70;;;;;;;;;;6215166;23;20005;-77
2022/05/15 00:14:18;;;;;;;8.13;7.32;;;;;;;;;;6215205;23;20001;-77
2022/05/15 00:16:44;;;;;;;8.05;7.35;;;;;;;;;;6215683;23;20404;-79
2022/05/15 00:19:10;;;;;;;9.05;7.75;;;;;;;;;;6215438;23;20450;-78
2022/05/15 00:21:36;;;;;;;9.15;8.05;;;;;;;;;;6215211;23;20007;-80
2022/05/15 00:24:03;;;;;;;8.75;7.85;;;;;;;;;;6214837;23;20013;-80
2022/05/15 00:26:30;;;;;;;8.30;7.50;;;;;;;;;;6215138;23;20020;-74
2022/05/15 00:28:56;;;;;;;9.20;8.30;;;;;;;;;;6215134;23;20000;-79
2022/05/15 00:31:23;;;;;;;7.50;6.78;;;;;;;;;;6188410;23;20083;-76
2022/05/15 00:33:50;;;;;;;8.63;7.88;;;;;;;;;;6215342;23;20043;-80
2022/05/15 00:36:16;;;;;;;9.25;8.35;;;;;;;;;;6214788;23;20416;-76
2022/05/15 00:38:44;;;;;;;9.05;8.15;;;;;;;;;;6215069;23;20008;-79
2022/05/15 00:41:10;;;;;;;10.20;9.20;;;;;;;;;;6214773;23;20012;-75
2022/05/15 00:43:36;;;;;;;9.30;8.25;;;;;;;;;;6214951;23;20001;-78
2022/05/15 00:46:03;;;;;;;9.90;8.40;;;;;;;;;;6214595;23;20017;-76
2022/05/15 00:48:29;;;;;;;12.07;8.02;;;;;;;;;;6214907;23;20031;-83
2022/05/15 00:50:56;;;;;;;9.68;7.55;;;;;;;;;;6215055;23;20004;-80
2022/05/15 00:53:22;;;;;;;8.75;7.75;;;;;;;;;;6214871;23;20000;-79
2022/05/15 00:55:50;;;;;;;9.85;8.85;;;;;;;;;;6214995;23;20094;-77
2022/05/15 00:58:18;;;;;;;11.15;10.07;;;;;;;;;;6187645;23;20008;-74
2022/05/15 01:00:44;;;;;;;10.38;9.27;;;;;;;;;;6214794;23;20015;-79
2022/05/15 01:03:12;;;;;;;14.10;11.80;;;;;;;;;;6214556;23;20007;-82
2022/05/15 01:05:41;;;;;;;9.27;8.38;;;;;;;;;;6214703;23;20009;-81
2022/05/15 01:08:07;;;;;;;11.65;9.20;;;;;;;;;;6214604;23;20008;-79
2022/05/15 01:10:37;;;;;;;10.60;9.50;;;;;;;;;;6214813;23;20004;-80
2022/05/15 01:13:04;;;;;;;9.45;8.52;;;;;;;;;;6214534;23;20005;-76
2022/05/15 01:15:30;;;;;;;9.38;8.48;;;;;;;;;;6214874;23;20016;-83
2022/05/15 01:17:57;;;;;;;9.18;8.30;;;;;;;;;;6214705;23;20008;-74
2022/05/15 01:20:24;;;;;;;19.48;17.48;;;;;;;;;;6214398;23;20548;-80
2022/05/15 01:22:52;;;;;;;13.65;12.35;;;;;;;;;;6214358;23;20001;-76
2022/05/15 01:25:28;;;;;;;9.65;8.65;;;;;;;;;;6215457;23;20479;-77
2022/05/15 01:28:13;;;;;;;8.57;7.78;;;;;;;;;;6214389;23;20428;-78
2022/05/15 01:30:39;;;;;;;;;;;;;;;;;;6214999;23;20001;-82
2022/05/15 01:33:05;;;;;;;21.80;19.60;;;;;;;;;;6214435;23;20004;-77
2022/05/15 01:35:32;;;;;;;20.90;17.95;;;;;;;;;;6214586;23;20416;-80
2022/05/15 01:37:58;;;;;;;26.88;23.83;;;;;;;;;;6214357;23;20004;-78
2022/05/15 01:40:24;;;;;;;15.68;12.73;;;;;;;;;;6215353;23;20005;-79
2022/05/15 01:42:50;;;;;;;11.93;9.40;;;;;;;;;;6214420;23;20075;-83
2022/05/15 01:45:17;;;;;;;10.10;8.10;;;;;;;;;;6214564;23;20056;-75
2022/05/15 01:47:43;;;;;;;8.25;7.40;;;;;;;;;;6214280;23;20062;-79
2022/05/15 01:50:10;;;;;;;8.55;7.72;;;;;;;;;;6214826;23;20009;-80
2022/05/15 01:52:36;;;;;;;14.63;11.77;;;;;;;;;;6214533;23;20058;-82
2022/05/15 01:55:03;;;;;;;11.73;10.50;;;;;;;;;;6214308;23;19996;-77
2022/05/15 01:57:29;;;;;;;8.60;7.80;;;;;;;;;;6214643;23;20007;-81
2022/05/15 01:59:55;;;;;;;9.38;8.40;;;;;;;;;;6215002;23;20039;-79
2022/05/15 02:02:21;;;;;;;10.07;8.45;;;;;;;;;;6216743;23;20016;-78
2022/05/15 02:04:47;;;;;;;9.57;8.38;;;;;;;;;;6216892;23;20428;-79
2022/05/15 02:07:13;;;;;;;9.48;8.57;;;;;;;;;;6216428;23;20015;-79
2022/05/15 02:09:40;;;;;;;7.60;6.95;;;;;;;;;;6216510;23;20012;-77
2022/05/15 02:12:07;;;;;;;9.18;8.23;;;;;;;;;;6216339;23;20428;-77
2022/05/15 02:14:33;;;;;;;9.88;8.98;;;;;;;;;;6216419;23;20092;-83
2022/05/15 02:16:59;;;;;;;9.38;8.52;;;;;;;;;;6216758;23;20018;-78
2022/05/15 02:19:25;;;;;;;13.10;11.70;;;;;;;;;;6216398;23;20013;-73
2022/05/15 02:21:51;;;;;;;11.45;10.35;;;;;;;;;;6216181;23;20107;-79
2022/05/15 02:24:17;;;;;;;9.38;8.57;;;;;;;;;;6216301;23;20005;-80
2022/05/15 02:26:44;;;;;;;10.18;8.00;;;;;;;;;;6216139;23;20379;-79
2022/05/15 02:29:10;;;;;;;8.57;7.75;;;;;;;;;;6216077;23;20004;-80
2022/05/15 02:31:36;;;;;;;10.38;8.65;;;;;;;;;;6216207;23;20008;-76
2022/05/15 02:34:02;;;;;;;9.30;8.43;;;;;;;;;;6215990;23;20188;-84
2022/05/15 02:36:29;;;;;;;11.45;9.13;;;;;;;;;;6216435;23;20031;-75
2022/05/15 02:38:55;;;;;;;10.55;9.43;;;;;;;;;;6216085;23;20032;-75
2022/05/15 02:41:21;;;;;;;8.93;8.02;;;;;;;;;;6216295;23;20004;-76
2022/05/15 02:43:47;;;;;;;8.82;7.95;;;;;;;;;;6216119;23;20012;-77
2022/05/15 02:46:13;;;;;;;8.52;7.80;;;;;;;;;;6215515;23;20013;-79
2022/05/15 02:51:24;;;;;;;;;;;;;;;;;;6217125;23;20024;-76
2022/05/15 02:53:50;;;;;;;10.10;8.70;;;;;;;;;;6215889;23;19900;-79
2022/05/15 02:56:24;;;;;;;10.00;8.65;;;;;;;;;;6216066;23;20005;-81
2022/05/15 02:58:50;;;;;;;9.27;8.38;;;;;;;;;;6215694;23;20040;-81
2022/05/15 03:01:17;;;;;;;9.73;8.82;;;;;;;;;;6216093;23;20015;-78
2022/05/15 03:03:43;;;;;;;9.27;8.48;;;;;;;;;;6215886;23;20004;-79
2022/05/15 03:06:10;;;;;;;9.32;8.52;;;;;;;;;;6215787;23;20049;-78
2022/05/15 03:08:39;;;;;;;9.23;8.25;;;;;;;;;;6215884;23;20058;-81
2022/05/15 03:11:05;;;;;;;11.38;9.55;;;;;;;;;;6215435;23;20004;-79
2022/05/15 03:13:31;;;;;;;9.82;8.18;;;;;;;;;;6216367;23;20001;-81
2022/05/15 03:15:57;;;;;;;9.75;8.85;;;;;;;;;;6215904;23;20004;-82
2022/05/15 03:18:24;;;;;;;13.07;11.82;;;;;;;;;;6215912;23;20681;-78
2022/05/15 03:20:50;;;;;;;243.48;64.05;;;;;;;;;;6215495;23;20004;-77
2022/05/15 03:23:16;;;;;;;97.97;31.05;;;;;;;;;;6216025;23;20008;-77
2022/05/15 03:25:43;;;;;;;15.38;11.30;;;;;;;;;;6215469;23;20424;-77
2022/05/15 03:28:09;;;;;;;11.02;9.93;;;;;;;;;;6215511;23;20009;-78
2022/05/15 03:30:39;;;;;;;9.85;8.80;;;;;;;;;;6215863;23;20005;-76
2022/05/15 03:33:05;;;;;;;13.18;9.77;;;;;;;;;;6215385;23;20008;-78
2022/05/15 03:35:32;;;;;;;21.17;11.40;;;;;;;;;;6189029;23;20023;-78
2022/05/15 03:37:58;;;;;;;14.23;10.73;;;;;;;;;;6215156;23;20031;-77
2022/05/15 03:40:24;;;;;;;149.73;46.58;;;;;;;;;;6215419;23;20432;-78
2022/05/15 03:42:51;;;;;;;35.00;16.10;;;;;;;;;;6215312;23;20000;-79
2022/05/15 03:45:17;;;;;;;11.98;10.38;;;;;;;;;;6215422;23;20039;-76
2022/05/15 03:47:47;;;;;;;10.75;9.68;;;;;;;;;;6215511;23;20036;-77
2022/05/15 03:50:14;;;;;;;10.75;9.75;;;;;;;;;;6215291;23;20094;-78
2022/05/15 03:52:40;;;;;;;11.02;8.88;;;;;;;;;;6215348;23;20031;-78
2022/05/15 03:55:06;;;;;;;24.15;17.73;;;;;;;;;;6215067;23;20000;-79
2022/05/15 03:57:33;;;;;;;11.55;10.40;;;;;;;;;;6215452;23;20009;-80
2022/05/15 03:59:59;;;;;;;11.10;10.00;;;;;;;;;;6214715;23;20019;-79
2022/05/15 04:02:25;;;;;;;10.73;9.15;;;;;;;;;;6215450;23;20012;-78
2022/05/15 04:04:51;;;;;;;15.07;10.40;;;;;;;;;;6215022;23;20077;-76
2022/05/15 04:07:17;;;;;;;11.40;9.50;;;;;;;;;;6214929;23;20001;-78
2022/05/15 04:09:44;;;;;;;13.07;11.77;;;;;;;;;;6215298;23;20067;-78
2022/05/15 04:12:10;;;;;;;11.68;10.52;;;;;;;;;;6214911;23;20310;-77
2022/05/15 04:14:36;;;;;;;12.02;10.82;;;;;;;;;;6215379;23;20068;-78
2022/05/15 04:17:03;;;;;;;13.20;11.95;;;;;;;;;;6214929;23;20042;-78
2022/05/15 04:19:29;;;;;;;14.52;11.07;;;;;;;;;;6215345;23;20005;-77
2022/05/15 04:21:58;;;;;;;12.30;10.32;;;;;;;;;;6214938;23;20000;-79
2022/05/15 04:24:24;;;;;;;13.82;11.38;;;;;;;;;;6214791;23;20040;-78
2022/05/15 04:26:50;;;;;;;12.80;10.73;;;;;;;;;;6215224;23;20008;-77
2022/05/15 04:29:17;;;;;;;12.07;10.32;;;;;;;;;;6214890;23;20297;-79
2022/05/15 04:31:43;;;;;;;10.65;9.55;;;;;;;;;;6215352;23;20120;-78
2022/05/15 04:34:09;;;;;;;11.15;9.73;;;;;;;;;;6214658;23;19996;-79
2022/05/15 04:36:35;;;;;;;11.60;9.52;;;;;;;;;;6215025;23;20008;-79
2022/05/15 04:39:01;;;;;;;12.68;10.48;;;;;;;;;;6214822;23;20001;-78
2022/05/15 04:41:28;;;;;;;13.05;10.73;;;;;;;;;;6215165;23;20005;-76
2022/05/15 04:43:54;;;;;;;11.90;10.77;;;;;;;;;;6214805;23;20007;-78
2022/05/15 04:46:22;;;;;;;12.02;10.68;;;;;;;;;;6214574;23;20019;-78
2022/05/15 04:48:48;;;;;;;12.82;11.60;;;;;;;;;;6214959;23;20024;-76
2022/05/15 04:51:14;;;;;;;14.00;12.05;;;;;;;;;;6187848;23;20336;-78
2022/05/15 04:53:40;;;;;;;12.55;11.40;;;;;;;;;;6214918;23;20470;-80
2022/05/15 04:56:13;;;;;;;12.25;10.68;;;;;;;;;;5110186;27;20385;-80
2022/05/15 04:58:39;;;;;;;16.30;14.45;;;;;;;;;;5110154;28;20110;-80
2022/05/15 05:01:05;;;;;;;16.50;14.35;;;;;;;;;;5109830;28;20103;-78
2022/05/15 05:03:31;;;;;;;10.38;9.38;;;;;;;;;;5110023;28;20103;-80
2022/05/15 05:05:57;;;;;;;11.90;9.93;;;;;;;;;;5110043;28;20067;-79
2022/05/15 05:08:23;;;;;;;11.35;9.98;;;;;;;;;;5109815;28;20494;-79
2022/05/15 05:10:49;;;;;;;14.00;9.57;;;;;;;;;;5109942;28;20030;-79
2022/05/15 05:13:16;;;;;;;11.73;9.35;;;;;;;;;;5109647;28;20106;-78
2022/05/15 05:15:42;;;;;;;10.40;9.25;;;;;;;;;;5109910;28;20031;-77
2022/05/15 05:18:08;;;;;;;10.68;9.15;;;;;;;;;;5109516;28;20032;-78
2022/05/15 05:20:34;;;;;;;10.13;8.05;;;;;;;;;;5109736;28;20471;-79
2022/05/15 05:23:00;;;;;;;13.57;8.10;;;;;;;;;;5109638;28;20028;-80
2022/05/15 05:25:26;;;;;;;10.38;8.65;;;;;;;;;;5109496;28;20498;-80
2022/05/15 05:27:52;;;;;;;8.43;7.60;;;;;;;;;;5109518;28;20062;-80
2022/05/15 05:30:20;;;;;;;8.73;7.30;;;;;;;;;;5109353;28;20024;-80
2022/05/15 05:32:46;;;;;;;8.70;7.47;;;;;;;;;;5109456;28;20379;-80
2022/05/15 05:35:13;;;;;;;8.65;7.47;;;;;;;;;;5109165;28;20395;-78
2022/05/15 05:37:39;;;;;;;8.48;7.68;;;;;;;;;;5109592;28;20090;-80
2022/05/15 05:40:06;;;;;;;8.60;7.80;;;;;;;;;;5109255;28;20493;-80
2022/05/15 05:42:32;;;;;;;7.55;6.72;;;;;;;;;;5109163;28;20140;-80
2022/05/15 05:44:58;;;;;;;7.93;7.22;;;;;;;;;;5109334;28;20019;-77
2022/05/15 05:47:25;;;;;;;8.05;7.25;;;;;;;;;;5108977;28;20043;-78
2022/05/15 05:49:51;;;;;;;7.55;6.70;;;;;;;;;;5109519;28;20069;-78
2022/05/15 05:52:18;;;;;;;6.72;6.10;;;;;;;;;;5109071;28;20020;-79
2022/05/15 05:54:44;;;;;;;6.60;6.03;;;;;;;;;;5108830;28;20078;-78
2022/05/15 05:57:10;;;;;;;8.43;6.80;;;;;;;;;;5108999;28;20032;-77
2022/05/15 05:59:36;;;;;;;8.63;6.35;;;;;;;;;;5108644;28;20106;-79
2022/05/15 06:02:03;;;;;;;8.20;6.00;;;;;;;;;;5108744;28;20036;-79
2022/05/15 06:07:37;;;;;;;5.93;4.97;;;;;;;;;;5097028;28;20093;-79
2022/05/15 06:10:05;;;;;;;7.00;5.82;;;;;;;;;;5094822;28;20027;-78
2022/05/15 06:12:31;;;;;;;6.97;4.60;;;;;;;;;;5095103;28;20054;-79
2022/05/15 06:14:57;;;;;;;4.63;4.22;;;;;;;;;;5094579;28;20032;-78
2022/05/15 06:17:25;;;;;;;6.32;5.68;;;;;;;;;;5095122;28;20089;-78
2022/05/15 06:19:53;;;;;;;5.10;3.95;;;;;;;;;;5094655;28;20028;-79
2022/05/15 06:22:20;;;;;;;5.43;3.95;;;;;;;;;;5094991;28;20039;-78
2022/05/15 06:24:46;;;;;;;6.00;3.72;;;;;;;;;;5094479;28;20028;-78
2022/05/15 06:27:13;;;;;;;5.55;3.50;;;;;;;;;;5094636;28;20099;-78
2022/05/15 06:29:40;;;;;;;5.53;4.07;;;;;;;;;;5094678;28;20024;-78
2022/05/15 06:32:06;;;;;;;4.90;3.70;;;;;;;;;;5094453;28;20077;-78
2022/05/15 06:34:33;;;;;;;4.97;3.50;;;;;;;;;;5094631;28;20047;-77
2022/05/15 06:36:59;;;;;;;6.57;3.70;;;;;;;;;;5094489;28;20053;-77
2022/05/15 06:39:25;;;;;;;4.97;3.83;;;;;;;;;;5094467;28;20414;-79
2022/05/15 06:41:51;;;;;;;5.93;3.78;;;;;;;;;;5094519;28;20028;-78
2022/05/15 06:44:18;;;;;;;6.20;4.18;;;;;;;;;;5094433;28;20024;-77
2022/05/15 06:46:45;;;;;;;6.07;3.75;;;;;;;;;;5094494;28;20034;-77
2022/05/15 06:49:11;;;;;;;5.05;3.90;;;;;;;;;;5094171;28;20024;-77
2022/05/15 06:51:38;;;;;;;5.78;4.43;;;;;;;;;;5093175;28;20436;-80
2022/05/15 06:54:04;;;;;;;4.20;3.58;;;;;;;;;;5093577;28;20032;-78
2022/05/15 06:59:15;;;;;;;4.10;3.70;;;;;;;;;;5094118;28;20035;-77
2022/05/15 07:01:41;;;;;;;18.00;5.47;;;;;;;;;;5093989;28;20031;-79
2022/05/15 07:04:07;;;;;;;6.05;3.25;;;;;;;;;;5094219;28;20032;-79
2022/05/15 07:06:34;;;;;;;6.68;3.10;;;;;;;;;;5094190;28;20103;-78
2022/05/15 07:09:00;;;;;;;3.70;2.80;;;;;;;;;;5094018;28;20424;-77
2022/05/15 07:11:26;;;;;;;4.53;3.00;;;;;;;;;;5094039;28;20051;-79
2022/05/15 07:13:52;;;;;;;4.68;3.70;;;;;;;;;;5093719;28;20060;-79
2022/05/15 07:16:18;;;;;;;4.55;3.42;;;;;;;;;;5093768;28;20114;-78
2022/05/15 07:18:45;;;;;;;3.88;2.75;;;;;;;;;;5092618;28;20020;-78
2022/05/15 07:21:11;;;;;;;4.50;2.90;;;;;;;;;;5093546;28;20065;-79
2022/05/15 07:23:37;;;;;;;7.53;2.70;;;;;;;;;;5093881;28;20380;-78
2022/05/15 07:26:04;;;;;;;5.35;2.90;;;;;;;;;;5093327;28;20536;-78
2022/05/15 07:28:30;;;;;;;4.57;2.88;;;;;;;;;;5092530;28;20024;-81
2022/05/15 07:30:57;;;;;;;4.50;3.28;;;;;;;;;;5093383;28;20024;-78
2022/05/15 07:33:24;;;;;;;4.28;3.25;;;;;;;;;;5093586;28;20052;-77
2022/05/15 07:35:50;;;;;;;3.97;2.65;;;;;;;;;;5093209;28;20410;-78
2022/05/15 07:38:17;;;;;;;4.00;2.50;;;;;;;;;;5093489;28;20034;-79
2022/05/15 07:40:43;;;;;;;3.38;2.35;;;;;;;;;;5093363;28;20024;-78
2022/05/15 07:43:10;;;;;;;4.82;2.42;;;;;;;;;;5092974;28;20483;-74
2022/05/15 07:45:36;;;;;;;5.72;3.22;;;;;;;;;;5093253;28;20024;-79
2022/05/15 07:48:03;;;;;;;5.57;4.32;;;;;;;;;;5092841;28;20050;-79
2022/05/15 07:50:29;;;;;;;5.20;2.78;;;;;;;;;;5092984;28;20028;-79
2022/05/15 07:52:55;;;;;;;3.47;2.63;;;;;;;;;;5092963;28;20028;-77
2022/05/15 07:55:22;;;;;;;5.18;3.03;;;;;;;;;;5092704;28;20793;-77
2022/05/15 07:57:48;;;;;;;4.13;2.88;;;;;;;;;;5091754;28;20038;-77
2022/05/15 08:00:16;;;;;;;4.25;2.45;;;;;;;;;;5092733;28;20077;-77
2022/05/15 08:02:42;;;;;;;4.05;2.67;;;;;;;;;;5092815;28;20080;-77
2022/05/15 08:08:12;;;;;;;3.42;2.92;;;;;;;;;;5093232;28;20081;-78
2022/05/15 08:10:44;;;;;;;6.72;2.45;;;;;;;;;;5092741;28;20047;-77
2022/05/15 08:13:12;;;;;;;3.67;2.03;;;;;;;;;;5092768;28;20020;-79
2022/05/15 08:15:38;;;;;;;3.80;2.20;;;;;;;;;;5092348;28;20028;-78
2022/05/15 08:23:40;;;;;;;5.43;2.17;;;;;;;;;;5092961;28;20062;-80
2022/05/15 08:26:07;;;;;;;3.15;1.70;;;;;;;;;;5092275;28;20032;-78
2022/05/15 08:28:36;;;;;;;5.20;1.92;;;;;;;;;;5092711;28;20069;-78
2022/05/15 08:31:02;;;;;;;16.38;11.27;;;;;;;;;;5092309;28;20035;-79
2022/05/15 08:33:30;;;;;;;3.47;1.90;;;;;;;;;;5092479;28;20023;-78
2022/05/15 08:35:56;;;;;;;5.05;2.13;;;;;;;;;;5092323;28;20068;-78
2022/05/15 08:38:22;;;;;;;3.65;1.70;;;;;;;;;;5092718;28;20024;-77
2022/05/15 08:40:53;;;;;;;2.65;1.67;;;;;;;;;;5092273;28;20024;-78
2022/05/15 08:43:20;;;;;;;3.05;1.98;;;;;;;;;;5092425;28;20031;-80
2022/05/15 08:45:53;;;;;;;2.58;2.08;;;;;;;;;;5092272;28;20024;-75
2022/05/15 08:48:20;;;;;;;3.67;1.90;;;;;;;;;;5092336;28;20027;-78
2022/05/15 08:50:48;;;;;;;2.20;1.90;;;;;;;;;;5092054;28;20031;-75
2022/05/15 08:53:26;;;;;;;5.22;2.30;;;;;;;;;;5091027;28;20117;-77
2022/05/15 08:55:58;;;;;;;5.95;2.25;;;;;;;;;;5091812;28;20047;-77
2022/05/15 08:58:26;;;;;;;4.60;2.55;;;;;;;;;;5092210;28;20039;-77
2022/05/15 09:00:53;;;;;;;6.28;4.55;;;;;;;;;;5091998;28;20032;-76
2022/05/15 09:03:31;;;;;;;4.45;2.55;;;;;;;;;;5092275;28;20378;-76
2022/05/15 09:06:05;;;;;;;5.43;2.80;;;;;;;;;;5092288;28;20104;-79
2022/05/15 09:08:31;;;;;;;3.30;2.20;;;;;;;;;;5092025;28;20386;-78
2022/05/15 09:11:02;;;;;;;11.93;2.60;;;;;;;;;;5092158;28;20086;-76
2022/05/15 09:13:42;;;;;;;5.65;3.00;;;;;;;;;;5091802;28;20032;-77
2022/05/15 09:16:22;;;;;;;5.35;2.65;;;;;;;;;;5091819;28;20382;-77
2022/05/15 09:18:48;;;;;;;3.90;2.42;;;;;;;;;;5092152;28;20027;-77
2022/05/15 09:21:15;;;;;;;3.42;2.17;;;;;;;;;;5091933;28;20063;-76
2022/05/15 09:24:00;;;;;;;8.32;2.25;;;;;;;;;;5092029;28;20020;-75
2022/05/15 09:26:27;;;;;;;3.58;2.17;;;;;;;;;;5091853;28;20463;-77
2022/05/15 09:28:54;;;;;;;3.30;2.15;;;;;;;;;;5091677;28;20035;-77
2022/05/15 09:31:24;;;;;;;3.10;2.17;;;;;;;;;;5091978;28;20024;-78
2022/05/15 09:33:59;;;;;;;5.03;2.45;;;;;;;;;;5091730;28;20024;-76
2022/05/15 09:36:27;;;;;;;4.65;2.42;;;;;;;;;;5091785;28;20032;-76
2022/05/15 09:39:12;;;;;;;4.60;2.42;;;;;;;;;;5091697;28;20056;-77
2022/05/15 09:44:33;;;;;;;5.68;2.55;;;;;;;;;;5096027;28;20036;-78
2022/05/15 09:47:00;;;;;;;3.75;1.80;;;;;;;;;;5095327;28;20134;-76
2022/05/15 09:49:28;;;;;;;4.07;2.22;;;;;;;;;;5095702;28;20032;-77
2022/05/15 09:51:57;;;;;;;4.28;2.15;;;;;;;;;;5095581;28;20024;-79
2022/05/15 09:54:31;;;;;;;3.00;1.90;;;;;;;;;;5095289;28;20175;-77
2022/05/15 09:57:16;;;;;;;6.50;1.88;;;;;;;;;;5095288;28;20073;-76
2022/05/15 09:59:44;;;;;;;2.47;1.63;;;;;;;;;;5095100;28;20035;-76
2022/05/15 10:02:18;;;;;;;3.75;1.80;;;;;;;;;;5095508;28;20098;-77
2022/05/15 10:04:47;;;;;;;2.75;1.50;;;;;;;;;;5095375;28;20024;-76
2022/05/15 10:07:27;;;;;;;5.00;2.13;;;;;;;;;;5095308;28;20530;-78
2022/05/15 10:09:54;;;;;;;3.05;1.67;;;;;;;;;;5095079;28;20032;-75
2022/05/15 10:12:30;;;;;;;3.80;1.45;;;;;;;;;;5094976;28;20538;-76
2022/05/15 10:15:06;;;;;;;4.18;1.52;;;;;;;;;;5095017;28;20034;-76
2022/05/15 10:17:32;;;;;;;4.60;1.58;;;;;;;;;;5094978;28;20024;-76
2022/05/15 10:20:09;;;;;;;5.03;1.85;;;;;;;;;;5094881;28;20026;-77
2022/05/15 10:22:38;;;;;;;5.82;2.20;;;;;;;;;;5095042;28;20028;-77
2022/05/15 10:25:14;;;;;;;6.15;2.17;;;;;;;;;;5094558;28;20047;-76
2022/05/15 10:27:40;;;;;;;3.28;1.50;;;;;;;;;;5094756;28;20031;-78
2022/05/15 10:30:16;;;;;;;3.03;1.80;;;;;;;;;;5094952;28;20356;-76
2022/05/15 10:32:42;;;;;;;3.80;1.55;;;;;;;;;;5094451;28;20112;-79
2022/05/15 10:35:11;;;;;;;3.22;1.40;;;;;;;;;;5094882;28;20024;-77
2022/05/15 10:38:03;;;;;;;4.18;1.63;;;;;;;;;;5094490;28;20056;-77
2022/05/15 10:40:53;;;;;;;2.97;1.58;;;;;;;;;;5094257;28;20024;-80
2022/05/15 10:43:38;;;;;;;2.65;1.35;;;;;;;;;;5086825;28;20082;-79
2022/05/15 10:46:04;;;;;;;2.50;1.38;;;;;;;;;;5094414;28;20024;-79
2022/05/15 10:48:33;;;;;;;4.72;1.40;;;;;;;;;;5094382;28;20042;-76
2022/05/15 10:50:59;;;;;;;2.28;0.90;;;;;;;;;;5094182;28;20086;-76
2022/05/15 10:59:26;;;;;;;3.55;0.77;;;;;;;;;;5094404;28;20047;-75
2022/05/15 11:02:03;;;;;;;1.90;0.80;;;;;;;;;;5094014;28;20028;-77
2022/05/15 11:04:41;;;;;;;3.28;1.00;;;;;;;;;;5093852;28;20382;-77
2022/05/15 11:07:08;;;;;;;3.60;2.80;;;;;;;;;;5094292;28;20035;-77
2022/05/15 11:09:52;;;;;;;3.25;1.60;;;;;;;;;;5093994;28;20024;-78
2022/05/15 11:12:36;;;;;;;8.25;6.93;;;;;;;;;;5093908;28;20050;-78
2022/05/15 11:15:25;;;;;;;3.63;1.13;;;;;;;;;;5094078;28;20494;-77
2022/05/15 11:18:10;;;;;;;2.83;1.48;;;;;;;;;;5093862;28;20158;-79
2022/05/15 11:20:39;;;;;;;1.90;1.08;;;;;;;;;;5093646;28;20028;-77
2022/05/15 11:23:24;;;;;;;3.65;1.25;;;;;;;;;;5093920;28;20024;-77
2022/05/15 11:25:55;;;;;;;4.20;1.30;;;;;;;;;;5093911;28;20028;-75
2022/05/15 11:28:41;;;;;;;4.95;2.40;;;;;;;;;;5093527;28;20073;-76
2022/05/15 11:31:10;;;;;;;3.47;1.23;;;;;;;;;;5093426;28;20031;-79
2022/05/15 11:33:48;;;;;;;4.65;1.58;;;;;;;;;;5093632;28;20061;-82
2022/05/15 11:36:29;;;;;;;2.47;1.38;;;;;;;;;;5093672;28;20111;-80
2022/05/15 11:38:58;;;;;;;7.20;1.75;;;;;;;;;;5093390;28;20056;-78
2022/05/15 11:41:36;;;;;;;2.83;1.48;;;;;;;;;;5093608;28;20036;-79
2022/05/15 11:44:05;;;;;;;4.07;1.58;;;;;;;;;;5093533;28;20107;-76
2022/05/15 11:46:46;;;;;;;3.33;1.45;;;;;;;;;;5093151;28;20485;-78
2022/05/15 11:49:24;;;;;;;6.05;2.20;;;;;;;;;;5093259;28;20028;-78
2022/05/15 11:52:09;;;;;;;3.47;1.50;;;;;;;;;;5093418;28;20445;-79
2022/05/15 11:54:37;;;;;;;3.63;1.50;;;;;;;;;;5092817;28;20451;-76
2022/05/15 11:57:06;;;;;;;3.15;1.33;;;;;;;;;;5093044;28;20482;-77
2022/05/15 11:59:34;;;;;;;3.28;1.50;;;;;;;;;;5092828;28;20039;-78
2022/05/15 12:02:05;;;;;;;5.85;4.40;;;;;;;;;;5092647;28;20372;-79
2022/05/15 12:04:34;;;;;;;2.65;1.20;;;;;;;;;;5092239;28;20020;-77
2022/05/15 12:07:00;;;;;;;2.92;1.10;;;;;;;;;;5092705;28;20390;-79
2022/05/15 12:09:46;;;;;;;5.10;1.48;;;;;;;;;;5093140;28;20100;-79
2022/05/15 12:15:06;;;;;;;3.50;1.65;;;;;;;;;;5092698;28;20071;-77
2022/05/15 12:17:37;;;;;;;5.88;1.50;;;;;;;;;;5093014;28;20028;-77
2022/05/15 12:20:15;;;;;;;2.63;1.30;;;;;;;;;;5092788;28;20047;-78
2022/05/15 12:23:00;;;;;;;5.28;4.00;;;;;;;;;;5092341;28;20043;-76
2022/05/15 12:25:29;;;;;;;4.07;2.05;;;;;;;;;;5090921;28;20050;-79
2022/05/15 12:31:18;;;;;;;3.95;2.40;;;;;;;;;;5092918;28;20389;-78
2022/05/15 12:33:44;;;;;;;3.53;2.03;;;;;;;;;;5092593;28;20024;-78
2022/05/15 12:36:17;;;;;;;10.50;8.50;;;;;;;;;;5091738;28;20509;-78
2022/05/15 12:38:45;;;;;;;6.35;1.88;;;;;;;;;;5092503;28;20024;-79
2022/05/15 12:41:16;;;;;;;2.45;1.40;;;;;;;;;;5092071;28;20059;-76
2022/05/15 12:43:53;;;;;;;4.32;1.60;;;;;;;;;;5092458;28;20073;-78
2022/05/15 12:46:23;;;;;;;4.03;1.30;;;;;;;;;;5092157;28;20024;-77
2022/05/15 12:48:49;;;;;;;3.42;1.60;;;;;;;;;;5092133;28;20042;-76
2022/05/15 12:51:16;;;;;;;2.65;1.23;;;;;;;;;;5091847;28;20051;-80
2022/05/15 12:53:46;;;;;;;2.70;1.30;;;;;;;;;;5091979;28;20028;-80
2022/05/15 12:56:20;;;;;;;2.55;1.05;;;;;;;;;;5092414;28;20140;-80
2022/05/15 12:58:46;;;;;;;;;;;;;;;;;;5091343;28;20024;-81
2022/05/15 13:01:13;;;;;;;4.07;1.60;;;;;;;;;;5092479;28;20359;-76
2022/05/15 13:03:43;;;;;;;2.63;1.15;;;;;;;;;;5091076;28;20456;-78
2022/05/15 13:06:09;;;;;;;2.67;1.33;;;;;;;;;;5098006;28;20024;-77
2022/05/15 13:08:44;;;;;;;2.35;1.30;;;;;;;;;;5091982;28;20093;-78
2022/05/15 13:11:20;;;;;;;6.05;1.88;;;;;;;;;;5092031;28;20029;-78
2022/05/15 13:13:46;;;;;;;6.47;2.03;;;;;;;;;;5092198;28;20032;-77
2022/05/15 13:16:18;;;;;;;4.43;1.98;;;;;;;;;;5092845;28;20478;-78
2022/05/15 13:18:46;;;;;;;3.40;1.40;;;;;;;;;;5096321;28;20028;-81
2022/05/15 13:21:12;;;;;;;3.10;1.42;;;;;;;;;;5096157;28;20106;-79
2022/05/15 13:23:46;;;;;;;3.63;2.60;;;;;;;;;;5096201;28;20027;-80
2022/05/15 13:26:17;;;;;;;4.00;3.10;;;;;;;;;;5095859;28;20077;-81
2022/05/15 13:28:43;;;;;;;8.35;5.72;;;;;;;;;;5096024;28;20582;-80
2022/05/15 13:31:12;;;;;;;2.55;1.40;;;;;;;;;;5094432;28;20024;-79
2022/05/15 13:33:39;;;;;;;6.15;3.95;;;;;;;;;;5095909;28;20036;-77
2022/05/15 13:36:05;;;;;;;4.57;2.33;;;;;;;;;;5095590;28;20118;-79
2022/05/15 13:38:31;;;;;;;2.53;1.33;;;;;;;;;;5095895;28;20024;-80
2022/05/15 13:43:58;;;;;;;2.40;1.20;;;;;;;;;;5095916;28;20080;-78
2022/05/15 13:46:28;;;;;;;3.92;1.35;;;;;;;;;;5094627;28;20020;-80
2022/05/15 13:48:59;;;;;;;3.20;1.55;;;;;;;;;;5095508;28;20024;-80
2022/05/15 13:51:38;;;;;;;2.75;1.55;;;;;;;;;;5095711;28;20028;-79
2022/05/15 13:54:13;;;;;;;4.97;1.50;;;;;;;;;;5095618;28;20027;-79
2022/05/15 13:56:40;;;;;;;5.00;1.60;;;;;;;;;;5095924;28;20114;-79
2022/05/15 13:59:06;;;;;;;4.18;1.42;;;;;;;;;;5095550;28;20032;-81
2022/05/15 14:01:34;;;;;;;2.65;1.25;;;;;;;;;;5095208;28;20104;-76
2022/05/15 14:04:20;;;;;;;3.53;1.25;;;;;;;;;;5095407;28;20102;-78
2022/05/15 14:06:46;;;;;;;2.20;1.38;;;;;;;;;;5095223;28;20440;-75
2022/05/15 14:09:14;;;;;;;3.22;1.52;;;;;;;;;;5094966;28;20023;-78
2022/05/15 14:11:46;;;;;;;5.05;1.30;;;;;;;;;;5095161;28;20102;-80
2022/05/15 14:14:12;;;;;;;2.90;1.45;;;;;;;;;;5094907;28;20077;-77
2022/05/15 14:16:39;;;;;;;3.88;1.70;;;;;;;;;;5095147;28;20547;-76
2022/05/15 14:19:31;;;;;;;1.83;1.30;;;;;;;;;;5094759;28;20425;-78
2022/05/15 14:22:05;;;;;;;2.33;1.23;;;;;;;;;;5092581;28;20101;-76
2022/05/15 14:24:31;;;;;;;;;;;;;;;;;;5095149;28;20032;-77
2022/05/15 14:26:57;;;;;;;3.45;1.40;;;;;;;;;;5094109;28;20692;-77
2022/05/15 14:29:23;;;;;;;17.15;11.52;;;;;;;;;;5093537;28;20367;-75
2022/05/15 14:31:49;;;;;;;3.78;1.45;;;;;;;;;;5094445;28;20028;-75
2022/05/15 14:34:15;;;;;;;4.78;1.90;;;;;;;;;;5094613;28;20115;-77
2022/05/15 14:36:43;;;;;;;5.60;3.92;;;;;;;;;;5094092;28;20059;-76
2022/05/15 14:39:11;;;;;;;4.50;1.48;;;;;;;;;;5094595;28;20393;-78
2022/05/15 14:41:37;;;;;;;3.05;1.48;;;;;;;;;;5094430;28;20035;-77
2022/05/15 14:44:03;;;;;;;3.17;1.98;;;;;;;;;;5094350;28;20046;-78
2022/05/15 14:46:31;;;;;;;3.72;2.03;;;;;;;;;;5094493;28;20024;-79
2022/05/15 14:48:58;;;;;;;4.60;1.70;;;;;;;;;;5094134;28;20050;-80
2022/05/15 14:51:26;;;;;;;3.33;1.42;;;;;;;;;;5094540;28;20020;-77
2022/05/15 14:53:53;;;;;;;3.22;1.65;;;;;;;;;;5093883;28;20382;-78
2022/05/15 14:56:20;;;;;;;3.55;1.95;;;;;;;;;;5094265;28;20036;-76
2022/05/15 14:59:07;;;;;;;3.42;1.35;;;;;;;;;;5092742;28;20036;-76
2022/05/15 15:01:34;;;;;;;5.13;1.30;;;;;;;;;;5093917;28;20386;-76
2022/05/15 15:04:00;;;;;;;9.25;2.17;;;;;;;;;;5093109;28;20023;-77
2022/05/15 15:06:27;;;;;;;3.40;1.10;;;;;;;;;;5094052;28;20020;-78
2022/05/15 15:08:53;;;;;;;7.05;1.25;;;;;;;;;;5094192;28;20081;-77
2022/05/15 15:11:20;;;;;;;3.22;1.10;;;;;;;;;;5094098;28;20028;-77
2022/05/15 15:13:48;;;;;;;2.53;1.10;;;;;;;;;;5093780;28;20430;-77
2022/05/15 15:16:16;;;;;;;3.92;1.55;;;;;;;;;;5093777;28;20056;-75
2022/05/15 15:18:42;;;;;;;6.30;1.23;;;;;;;;;;5093596;28;20028;-77
2022/05/15 15:21:08;;;;;;;4.07;1.48;;;;;;;;;;5094072;28;20077;-76
2022/05/15 15:23:35;;;;;;;4.05;1.38;;;;;;;;;;5093451;28;20085;-79
2022/05/15 15:26:01;;;;;;;3.50;1.58;;;;;;;;;;5093779;28;20024;-76